sensor_id;sensor_type;location;lat;lon;timestamp;P1;durP1;ratioP1;P2;durP2;ratioP2
76373;SDS011;65197;50.164;8.012;2024-03-06T00:01:03;3.85;;;2.10;;
76373;SDS011;65197;50.164;8.012;2024-03-06T00:03:29;4.35;;;1.83;;
76373;SDS011;65197;50.164;8.012;2024-03-06T00:05:54;4.90;;;1.92;;
76373;SDS011;65197;50.164;8.012;2024-03-06T00:08:20;2.75;;;2.03;;
76373;SDS011;65197;50.164;8.012;2024-03-06T00:10:45;3.10;;;1.90;;
76373;SDS011;65197;50.164;8.012;2024-03-06T00:13:12;3.53;;;1.95;;
76373;SDS011;65197;50.164;8.012;2024-03-06T00:15:37;2.92;;;1.80;;
76373;SDS011;65197;50.164;8.012;2024-03-06T00:18:03;2.90;;;2.00;;
76373;SDS011;65197;50.164;8.012;2024-03-06T00:20:30;3.03;;;2.08;;
76373;SDS011;65197;50.164;8.012;2024-03-06T00:22:55;3.15;;;2.00;;
76373;SDS011;65197;50.164;8.012;2024-03-06T00:25:20;2.55;;;1.80;;
76373;SDS011;65197;50.164;8.012;2024-03-06T00:27:46;3.60;;;2.20;;
76373;SDS011;65197;50.164;8.012;2024-03-06T00:30:12;3.70;;;1.80;;
76373;SDS011;65197;50.164;8.012;2024-03-06T00:32:38;3.22;;;1.90;;
76373;SDS011;65197;50.164;8.012;2024-03-06T00:35:03;2.65;;;1.88;;
76373;SDS011;65197;50.164;8.012;2024-03-06T00:37:29;3.92;;;1.85;;
76373;SDS011;65197;50.164;8.012;2024-03-06T00:39:54;3.17;;;2.25;;
76373;SDS011;65197;50.164;8.012;2024-03-06T00:42:20;3.40;;;1.90;;
76373;SDS011;65197;50.164;8.012;2024-03-06T00:44:46;3.80;;;2.30;;
76373;SDS011;65197;50.164;8.012;2024-03-06T00:47:11;4.07;;;2.30;;
76373;SDS011;65197;50.164;8.012;2024-03-06T00:49:36;3.80;;;2.28;;
76373;SDS011;65197;50.164;8.012;2024-03-06T00:52:03;3.63;;;1.83;;
76373;SDS011;65197;50.164;8.012;2024-03-06T00:54:29;5.28;;;2.70;;
76373;SDS011;65197;50.164;8.012;2024-03-06T00:56:55;4.15;;;2.58;;
76373;SDS011;65197;50.164;8.012;2024-03-06T00:59:22;3.83;;;2.17;;
76373;SDS011;65197;50.164;8.012;2024-03-06T01:01:47;3.70;;;2.35;;
76373;SDS011;65197;50.164;8.012;2024-03-06T01:04:13;6.10;;;2.40;;
76373;SDS011;65197;50.164;8.012;2024-03-06T01:06:38;4.97;;;2.50;;
76373;SDS011;65197;50.164;8.012;2024-03-06T01:09:04;5.50;;;2.50;;
76373;SDS011;65197;50.164;8.012;2024-03-06T01:11:29;3.90;;;2.40;;
76373;SDS011;65197;50.164;8.012;2024-03-06T01:13:55;4.13;;;2.35;;
76373;SDS011;65197;50.164;8.012;2024-03-06T01:16:20;4.35;;;2.80;;
76373;SDS011;65197;50.164;8.012;2024-03-06T01:18:46;3.50;;;2.50;;
76373;SDS011;65197;50.164;8.012;2024-03-06T01:21:11;4.22;;;2.70;;
76373;SDS011;65197;50.164;8.012;2024-03-06T01:23:36;4.70;;;2.60;;
76373;SDS011;65197;50.164;8.012;2024-03-06T01:26:02;4.88;;;2.80;;
76373;SDS011;65197;50.164;8.012;2024-03-06T01:28:27;5.38;;;3.20;;
76373;SDS011;65197;50.164;8.012;2024-03-06T01:30:53;6.65;;;3.03;;
76373;SDS011;65197;50.164;8.012;2024-03-06T01:33:19;7.25;;;3.13;;
76373;SDS011;65197;50.164;8.012;2024-03-06T01:35:44;6.15;;;2.70;;
76373;SDS011;65197;50.164;8.012;2024-03-06T01:38:10;5.20;;;3.17;;
76373;SDS011;65197;50.164;8.012;2024-03-06T01:40:36;4.45;;;2.72;;
76373;SDS011;65197;50.164;8.012;2024-03-06T01:43:02;6.10;;;3.33;;
76373;SDS011;65197;50.164;8.012;2024-03-06T01:45:27;6.18;;;2.85;;
76373;SDS011;65197;50.164;8.012;2024-03-06T01:47:53;5.72;;;3.10;;
76373;SDS011;65197;50.164;8.012;2024-03-06T01:50:19;4.43;;;2.90;;
76373;SDS011;65197;50.164;8.012;2024-03-06T01:52:45;4.63;;;2.90;;
76373;SDS011;65197;50.164;8.012;2024-03-06T01:55:11;7.95;;;3.38;;
76373;SDS011;65197;50.164;8.012;2024-03-06T01:57:37;5.47;;;3.05;;
76373;SDS011;65197;50.164;8.012;2024-03-06T02:00:05;6.25;;;3.55;;
76373;SDS011;65197;50.164;8.012;2024-03-06T02:02:33;8.48;;;2.83;;
76373;SDS011;65197;50.164;8.012;2024-03-06T02:04:59;7.03;;;3.30;;
76373;SDS011;65197;50.164;8.012;2024-03-06T02:07:25;5.65;;;3.33;;
76373;SDS011;65197;50.164;8.012;2024-03-06T02:09:53;6.55;;;3.90;;
76373;SDS011;65197;50.164;8.012;2024-03-06T02:12:19;6.00;;;3.35;;
76373;SDS011;65197;50.164;8.012;2024-03-06T02:14:44;5.75;;;3.17;;
76373;SDS011;65197;50.164;8.012;2024-03-06T02:17:09;6.85;;;3.40;;
76373;SDS011;65197;50.164;8.012;2024-03-06T02:19:41;6.40;;;3.17;;
76373;SDS011;65197;50.164;8.012;2024-03-06T02:22:08;5.72;;;3.22;;
76373;SDS011;65197;50.164;8.012;2024-03-06T02:24:35;6.10;;;3.30;;
76373;SDS011;65197;50.164;8.012;2024-03-06T02:27:01;6.70;;;3.22;;
76373;SDS011;65197;50.164;8.012;2024-03-06T02:29:27;7.38;;;3.58;;
76373;SDS011;65197;50.164;8.012;2024-03-06T02:31:53;6.55;;;3.33;;
76373;SDS011;65197;50.164;8.012;2024-03-06T02:34:18;5.05;;;3.15;;
76373;SDS011;65197;50.164;8.012;2024-03-06T02:36:44;5.50;;;3.28;;
76373;SDS011;65197;50.164;8.012;2024-03-06T02:39:09;5.15;;;3.10;;
76373;SDS011;65197;50.164;8.012;2024-03-06T02:41:35;5.60;;;2.78;;
76373;SDS011;65197;50.164;8.012;2024-03-06T02:44:01;7.35;;;3.08;;
76373;SDS011;65197;50.164;8.012;2024-03-06T02:46:26;6.57;;;3.42;;
76373;SDS011;65197;50.164;8.012;2024-03-06T02:48:52;7.20;;;3.38;;
76373;SDS011;65197;50.164;8.012;2024-03-06T02:51:18;4.57;;;3.00;;
76373;SDS011;65197;50.164;8.012;2024-03-06T02:53:46;4.63;;;3.13;;
76373;SDS011;65197;50.164;8.012;2024-03-06T02:56:17;6.03;;;3.35;;
76373;SDS011;65197;50.164;8.012;2024-03-06T02:58:45;5.45;;;2.80;;
76373;SDS011;65197;50.164;8.012;2024-03-06T03:01:11;4.90;;;2.65;;
76373;SDS011;65197;50.164;8.012;2024-03-06T03:03:39;5.47;;;3.05;;
76373;SDS011;65197;50.164;8.012;2024-03-06T03:06:05;5.57;;;3.08;;
76373;SDS011;65197;50.164;8.012;2024-03-06T03:08:31;6.45;;;2.97;;
76373;SDS011;65197;50.164;8.012;2024-03-06T03:10:56;7.55;;;3.28;;
76373;SDS011;65197;50.164;8.012;2024-03-06T03:13:22;5.40;;;3.03;;
76373;SDS011;65197;50.164;8.012;2024-03-06T03:15:47;5.85;;;3.30;;
76373;SDS011;65197;50.164;8.012;2024-03-06T03:18:13;5.28;;;3.42;;
76373;SDS011;65197;50.164;8.012;2024-03-06T03:20:38;6.05;;;3.40;;
76373;SDS011;65197;50.164;8.012;2024-03-06T03:23:04;5.70;;;3.47;;
76373;SDS011;65197;50.164;8.012;2024-03-06T03:25:30;7.20;;;3.15;;
76373;SDS011;65197;50.164;8.012;2024-03-06T03:27:56;7.57;;;3.22;;
76373;SDS011;65197;50.164;8.012;2024-03-06T03:30:21;5.47;;;3.22;;
76373;SDS011;65197;50.164;8.012;2024-03-06T03:32:47;5.07;;;3.03;;
76373;SDS011;65197;50.164;8.012;2024-03-06T03:35:13;5.32;;;2.80;;
76373;SDS011;65197;50.164;8.012;2024-03-06T03:37:39;4.82;;;3.03;;
76373;SDS011;65197;50.164;8.012;2024-03-06T03:40:05;5.15;;;2.78;;
76373;SDS011;65197;50.164;8.012;2024-03-06T03:42:31;5.97;;;3.05;;
76373;SDS011;65197;50.164;8.012;2024-03-06T03:44:57;5.93;;;3.00;;
76373;SDS011;65197;50.164;8.012;2024-03-06T03:47:23;4.55;;;2.40;;
76373;SDS011;65197;50.164;8.012;2024-03-06T03:49:48;4.43;;;2.80;;
76373;SDS011;65197;50.164;8.012;2024-03-06T03:52:13;5.38;;;2.60;;
76373;SDS011;65197;50.164;8.012;2024-03-06T03:54:39;5.10;;;2.90;;
76373;SDS011;65197;50.164;8.012;2024-03-06T03:57:05;4.72;;;2.63;;
76373;SDS011;65197;50.164;8.012;2024-03-06T03:59:31;4.78;;;2.58;;
76373;SDS011;65197;50.164;8.012;2024-03-06T04:01:57;5.63;;;2.90;;
76373;SDS011;65197;50.164;8.012;2024-03-06T04:04:23;5.03;;;2.42;;
76373;SDS011;65197;50.164;8.012;2024-03-06T04:06:48;6.20;;;2.70;;
76373;SDS011;65197;50.164;8.012;2024-03-06T04:09:14;3.60;;;2.35;;
76373;SDS011;65197;50.164;8.012;2024-03-06T04:11:39;5.28;;;2.90;;
76373;SDS011;65197;50.164;8.012;2024-03-06T04:14:05;4.47;;;2.70;;
76373;SDS011;65197;50.164;8.012;2024-03-06T04:16:34;5.05;;;2.75;;
76373;SDS011;65197;50.164;8.012;2024-03-06T04:19:00;4.28;;;2.90;;
76373;SDS011;65197;50.164;8.012;2024-03-06T04:21:25;5.18;;;2.83;;
76373;SDS011;65197;50.164;8.012;2024-03-06T04:23:51;4.15;;;2.75;;
76373;SDS011;65197;50.164;8.012;2024-03-06T04:26:16;6.35;;;2.97;;
76373;SDS011;65197;50.164;8.012;2024-03-06T04:28:42;4.40;;;2.78;;
76373;SDS011;65197;50.164;8.012;2024-03-06T04:31:08;4.80;;;3.00;;
76373;SDS011;65197;50.164;8.012;2024-03-06T04:33:33;4.70;;;3.15;;
76373;SDS011;65197;50.164;8.012;2024-03-06T04:36:03;5.32;;;3.22;;
76373;SDS011;65197;50.164;8.012;2024-03-06T04:38:32;5.50;;;2.75;;
76373;SDS011;65197;50.164;8.012;2024-03-06T04:40:57;5.80;;;2.85;;
76373;SDS011;65197;50.164;8.012;2024-03-06T04:43:23;4.32;;;2.63;;
76373;SDS011;65197;50.164;8.012;2024-03-06T04:45:49;5.65;;;3.20;;
76373;SDS011;65197;50.164;8.012;2024-03-06T04:48:14;6.95;;;3.40;;
76373;SDS011;65197;50.164;8.012;2024-03-06T04:50:40;5.63;;;2.90;;
76373;SDS011;65197;50.164;8.012;2024-03-06T04:53:06;4.78;;;2.78;;
76373;SDS011;65197;50.164;8.012;2024-03-06T04:55:31;4.60;;;2.72;;
76373;SDS011;65197;50.164;8.012;2024-03-06T04:57:57;5.47;;;3.08;;
76373;SDS011;65197;50.164;8.012;2024-03-06T05:00:22;5.30;;;3.17;;
76373;SDS011;65197;50.164;8.012;2024-03-06T05:02:48;7.82;;;2.95;;
76373;SDS011;65197;50.164;8.012;2024-03-06T05:05:16;4.70;;;2.58;;
76373;SDS011;65197;50.164;8.012;2024-03-06T05:07:42;4.25;;;2.28;;
76373;SDS011;65197;50.164;8.012;2024-03-06T05:10:07;3.92;;;2.50;;
76373;SDS011;65197;50.164;8.012;2024-03-06T05:12:33;3.67;;;2.30;;
76373;SDS011;65197;50.164;8.012;2024-03-06T05:14:59;4.78;;;2.38;;
76373;SDS011;65197;50.164;8.012;2024-03-06T05:17:25;3.88;;;2.40;;
76373;SDS011;65197;50.164;8.012;2024-03-06T05:19:50;3.85;;;2.47;;
76373;SDS011;65197;50.164;8.012;2024-03-06T05:22:16;3.92;;;2.25;;
76373;SDS011;65197;50.164;8.012;2024-03-06T05:24:41;3.35;;;2.03;;
76373;SDS011;65197;50.164;8.012;2024-03-06T05:27:07;5.25;;;2.55;;
76373;SDS011;65197;50.164;8.012;2024-03-06T05:29:33;4.38;;;2.17;;
76373;SDS011;65197;50.164;8.012;2024-03-06T05:31:58;4.32;;;2.33;;
76373;SDS011;65197;50.164;8.012;2024-03-06T05:34:23;7.00;;;2.90;;
76373;SDS011;65197;50.164;8.012;2024-03-06T05:36:49;4.70;;;2.72;;
76373;SDS011;65197;50.164;8.012;2024-03-06T05:39:15;4.90;;;2.85;;
76373;SDS011;65197;50.164;8.012;2024-03-06T05:41:42;5.43;;;2.13;;
76373;SDS011;65197;50.164;8.012;2024-03-06T05:44:08;4.10;;;2.60;;
76373;SDS011;65197;50.164;8.012;2024-03-06T05:46:33;4.15;;;2.67;;
76373;SDS011;65197;50.164;8.012;2024-03-06T05:48:59;4.00;;;2.70;;
76373;SDS011;65197;50.164;8.012;2024-03-06T05:51:25;5.07;;;2.95;;
76373;SDS011;65197;50.164;8.012;2024-03-06T05:53:51;5.88;;;3.25;;
76373;SDS011;65197;50.164;8.012;2024-03-06T05:56:19;7.40;;;3.60;;
76373;SDS011;65197;50.164;8.012;2024-03-06T05:58:45;6.60;;;3.55;;
76373;SDS011;65197;50.164;8.012;2024-03-06T06:01:17;8.73;;;3.92;;
76373;SDS011;65197;50.164;8.012;2024-03-06T06:03:46;9.30;;;3.97;;
76373;SDS011;65197;50.164;8.012;2024-03-06T06:06:16;5.88;;;3.55;;
76373;SDS011;65197;50.164;8.012;2024-03-06T06:08:42;6.60;;;3.63;;
76373;SDS011;65197;50.164;8.012;2024-03-06T06:11:09;6.85;;;4.40;;
76373;SDS011;65197;50.164;8.012;2024-03-06T06:13:34;8.68;;;4.55;;
76373;SDS011;65197;50.164;8.012;2024-03-06T06:16:00;9.48;;;4.97;;
76373;SDS011;65197;50.164;8.012;2024-03-06T06:18:27;9.30;;;5.35;;
76373;SDS011;65197;50.164;8.012;2024-03-06T06:20:53;13.10;;;5.78;;
76373;SDS011;65197;50.164;8.012;2024-03-06T06:23:18;17.55;;;7.40;;
76373;SDS011;65197;50.164;8.012;2024-03-06T06:25:44;15.55;;;7.05;;
76373;SDS011;65197;50.164;8.012;2024-03-06T06:28:09;15.63;;;6.95;;
76373;SDS011;65197;50.164;8.012;2024-03-06T06:30:35;17.23;;;8.88;;
76373;SDS011;65197;50.164;8.012;2024-03-06T06:33:01;16.33;;;8.77;;
76373;SDS011;65197;50.164;8.012;2024-03-06T06:35:26;17.77;;;9.13;;
76373;SDS011;65197;50.164;8.012;2024-03-06T06:37:52;19.67;;;8.70;;
76373;SDS011;65197;50.164;8.012;2024-03-06T06:40:18;18.92;;;9.57;;
76373;SDS011;65197;50.164;8.012;2024-03-06T06:42:45;19.17;;;8.88;;
76373;SDS011;65197;50.164;8.012;2024-03-06T06:45:17;17.95;;;8.35;;
76373;SDS011;65197;50.164;8.012;2024-03-06T06:47:49;16.85;;;8.48;;
76373;SDS011;65197;50.164;8.012;2024-03-06T06:50:15;11.43;;;6.85;;
76373;SDS011;65197;50.164;8.012;2024-03-06T06:52:41;11.48;;;5.93;;
76373;SDS011;65197;50.164;8.012;2024-03-06T06:55:07;11.57;;;6.55;;
76373;SDS011;65197;50.164;8.012;2024-03-06T07:00:02;10.82;;;5.53;;
76373;SDS011;65197;50.164;8.012;2024-03-06T07:02:39;7.78;;;5.07;;
76373;SDS011;65197;50.164;8.012;2024-03-06T07:05:06;8.40;;;5.05;;
76373;SDS011;65197;50.164;8.012;2024-03-06T07:07:32;6.63;;;4.15;;
76373;SDS011;65197;50.164;8.012;2024-03-06T07:09:57;7.57;;;4.63;;
76373;SDS011;65197;50.164;8.012;2024-03-06T07:12:23;7.35;;;4.15;;
76373;SDS011;65197;50.164;8.012;2024-03-06T07:14:49;6.22;;;4.00;;
76373;SDS011;65197;50.164;8.012;2024-03-06T07:17:14;6.90;;;4.18;;
76373;SDS011;65197;50.164;8.012;2024-03-06T07:19:40;5.65;;;3.72;;
76373;SDS011;65197;50.164;8.012;2024-03-06T07:22:05;6.25;;;4.07;;
76373;SDS011;65197;50.164;8.012;2024-03-06T07:24:31;5.93;;;3.55;;
76373;SDS011;65197;50.164;8.012;2024-03-06T07:26:56;6.75;;;3.50;;
76373;SDS011;65197;50.164;8.012;2024-03-06T07:29:22;7.05;;;3.78;;
76373;SDS011;65197;50.164;8.012;2024-03-06T07:31:47;6.43;;;3.58;;
76373;SDS011;65197;50.164;8.012;2024-03-06T07:34:13;6.10;;;4.05;;
76373;SDS011;65197;50.164;8.012;2024-03-06T07:36:39;6.10;;;4.00;;
76373;SDS011;65197;50.164;8.012;2024-03-06T07:39:05;7.65;;;4.70;;
76373;SDS011;65197;50.164;8.012;2024-03-06T07:41:30;6.53;;;4.60;;
76373;SDS011;65197;50.164;8.012;2024-03-06T07:43:57;5.93;;;3.85;;
76373;SDS011;65197;50.164;8.012;2024-03-06T07:46:24;5.95;;;4.30;;
76373;SDS011;65197;50.164;8.012;2024-03-06T07:48:50;7.38;;;4.25;;
76373;SDS011;65197;50.164;8.012;2024-03-06T07:51:16;6.70;;;3.88;;
76373;SDS011;65197;50.164;8.012;2024-03-06T07:53:42;5.72;;;4.10;;
76373;SDS011;65197;50.164;8.012;2024-03-06T07:56:09;6.97;;;4.55;;
76373;SDS011;65197;50.164;8.012;2024-03-06T07:58:36;6.18;;;4.32;;
76373;SDS011;65197;50.164;8.012;2024-03-06T08:01:02;5.95;;;3.80;;
76373;SDS011;65197;50.164;8.012;2024-03-06T08:03:28;7.20;;;4.68;;
76373;SDS011;65197;50.164;8.012;2024-03-06T08:05:53;8.13;;;4.55;;
76373;SDS011;65197;50.164;8.012;2024-03-06T08:08:19;7.93;;;4.82;;
76373;SDS011;65197;50.164;8.012;2024-03-06T08:10:45;7.88;;;4.45;;
76373;SDS011;65197;50.164;8.012;2024-03-06T08:13:11;7.68;;;5.00;;
76373;SDS011;65197;50.164;8.012;2024-03-06T08:15:36;8.55;;;5.05;;
76373;SDS011;65197;50.164;8.012;2024-03-06T08:18:02;7.25;;;4.93;;
76373;SDS011;65197;50.164;8.012;2024-03-06T08:20:28;8.55;;;4.70;;
76373;SDS011;65197;50.164;8.012;2024-03-06T08:22:54;8.65;;;5.32;;
76373;SDS011;65197;50.164;8.012;2024-03-06T08:25:21;8.13;;;5.28;;
76373;SDS011;65197;50.164;8.012;2024-03-06T08:27:46;6.93;;;4.68;;
76373;SDS011;65197;50.164;8.012;2024-03-06T08:30:11;9.75;;;5.07;;
76373;SDS011;65197;50.164;8.012;2024-03-06T08:32:37;7.97;;;5.45;;
76373;SDS011;65197;50.164;8.012;2024-03-06T08:35:03;10.13;;;5.63;;
76373;SDS011;65197;50.164;8.012;2024-03-06T08:37:32;7.60;;;5.18;;
76373;SDS011;65197;50.164;8.012;2024-03-06T08:39:59;7.63;;;5.05;;
76373;SDS011;65197;50.164;8.012;2024-03-06T08:42:25;7.40;;;4.65;;
76373;SDS011;65197;50.164;8.012;2024-03-06T08:44:51;8.45;;;5.10;;
76373;SDS011;65197;50.164;8.012;2024-03-06T08:47:17;9.52;;;5.28;;
76373;SDS011;65197;50.164;8.012;2024-03-06T08:49:42;8.27;;;4.63;;
76373;SDS011;65197;50.164;8.012;2024-03-06T08:52:08;7.55;;;4.80;;
76373;SDS011;65197;50.164;8.012;2024-03-06T08:54:35;7.05;;;4.78;;
76373;SDS011;65197;50.164;8.012;2024-03-06T08:57:01;7.50;;;4.72;;
76373;SDS011;65197;50.164;8.012;2024-03-06T08:59:27;8.80;;;5.10;;
76373;SDS011;65197;50.164;8.012;2024-03-06T09:01:53;7.47;;;4.88;;
76373;SDS011;65197;50.164;8.012;2024-03-06T09:04:19;8.25;;;5.43;;
76373;SDS011;65197;50.164;8.012;2024-03-06T09:06:45;8.88;;;5.25;;
76373;SDS011;65197;50.164;8.012;2024-03-06T09:09:10;9.68;;;5.50;;
76373;SDS011;65197;50.164;8.012;2024-03-06T09:11:36;11.10;;;5.97;;
76373;SDS011;65197;50.164;8.012;2024-03-06T09:14:01;9.52;;;5.53;;
76373;SDS011;65197;50.164;8.012;2024-03-06T09:16:26;9.40;;;6.13;;
76373;SDS011;65197;50.164;8.012;2024-03-06T09:18:52;10.07;;;5.45;;
76373;SDS011;65197;50.164;8.012;2024-03-06T09:21:18;10.38;;;6.15;;
76373;SDS011;65197;50.164;8.012;2024-03-06T09:23:44;10.48;;;6.10;;
76373;SDS011;65197;50.164;8.012;2024-03-06T09:26:10;9.80;;;5.88;;
76373;SDS011;65197;50.164;8.012;2024-03-06T09:28:35;12.73;;;6.80;;
76373;SDS011;65197;50.164;8.012;2024-03-06T09:31:01;12.00;;;7.07;;
76373;SDS011;65197;50.164;8.012;2024-03-06T09:33:26;12.10;;;7.25;;
76373;SDS011;65197;50.164;8.012;2024-03-06T09:35:51;11.75;;;7.22;;
76373;SDS011;65197;50.164;8.012;2024-03-06T09:38:17;12.82;;;7.30;;
76373;SDS011;65197;50.164;8.012;2024-03-06T09:40:42;14.95;;;7.85;;
76373;SDS011;65197;50.164;8.012;2024-03-06T09:43:07;14.32;;;7.78;;
76373;SDS011;65197;50.164;8.012;2024-03-06T09:45:34;18.02;;;9.27;;
76373;SDS011;65197;50.164;8.012;2024-03-06T09:48:00;17.27;;;8.27;;
76373;SDS011;65197;50.164;8.012;2024-03-06T09:50:26;12.25;;;7.45;;
76373;SDS011;65197;50.164;8.012;2024-03-06T09:52:54;15.38;;;8.23;;
76373;SDS011;65197;50.164;8.012;2024-03-06T09:55:21;13.63;;;8.55;;
76373;SDS011;65197;50.164;8.012;2024-03-06T09:57:46;13.88;;;7.47;;
76373;SDS011;65197;50.164;8.012;2024-03-06T10:00:13;16.10;;;8.45;;
76373;SDS011;65197;50.164;8.012;2024-03-06T10:02:40;15.85;;;8.50;;
76373;SDS011;65197;50.164;8.012;2024-03-06T10:05:21;15.05;;;8.15;;
76373;SDS011;65197;50.164;8.012;2024-03-06T10:07:47;13.75;;;7.88;;
76373;SDS011;65197;50.164;8.012;2024-03-06T10:10:12;13.73;;;7.88;;
76373;SDS011;65197;50.164;8.012;2024-03-06T10:12:39;12.57;;;6.88;;
76373;SDS011;65197;50.164;8.012;2024-03-06T10:15:04;13.77;;;8.00;;
76373;SDS011;65197;50.164;8.012;2024-03-06T10:17:30;14.82;;;8.20;;
76373;SDS011;65197;50.164;8.012;2024-03-06T10:19:56;17.33;;;9.25;;
76373;SDS011;65197;50.164;8.012;2024-03-06T10:22:23;17.38;;;8.77;;
76373;SDS011;65197;50.164;8.012;2024-03-06T10:24:55;16.33;;;8.63;;
76373;SDS011;65197;50.164;8.012;2024-03-06T10:27:23;14.45;;;8.27;;
76373;SDS011;65197;50.164;8.012;2024-03-06T10:30:00;13.73;;;7.93;;
76373;SDS011;65197;50.164;8.012;2024-03-06T10:32:27;14.85;;;8.63;;
76373;SDS011;65197;50.164;8.012;2024-03-06T10:34:52;13.63;;;7.32;;
76373;SDS011;65197;50.164;8.012;2024-03-06T10:37:18;12.43;;;8.10;;
76373;SDS011;65197;50.164;8.012;2024-03-06T10:39:46;15.70;;;7.80;;
76373;SDS011;65197;50.164;8.012;2024-03-06T10:42:17;12.93;;;8.43;;
76373;SDS011;65197;50.164;8.012;2024-03-06T10:44:48;15.27;;;8.63;;
76373;SDS011;65197;50.164;8.012;2024-03-06T10:47:20;15.88;;;9.02;;
76373;SDS011;65197;50.164;8.012;2024-03-06T10:49:46;14.23;;;9.18;;
76373;SDS011;65197;50.164;8.012;2024-03-06T10:52:12;15.25;;;8.60;;
76373;SDS011;65197;50.164;8.012;2024-03-06T10:57:10;15.13;;;8.98;;
76373;SDS011;65197;50.164;8.012;2024-03-06T10:59:37;16.52;;;8.38;;
76373;SDS011;65197;50.164;8.012;2024-03-06T11:02:03;14.98;;;8.88;;
76373;SDS011;65197;50.164;8.012;2024-03-06T11:04:29;15.00;;;9.48;;
76373;SDS011;65197;50.164;8.012;2024-03-06T11:06:59;15.93;;;9.05;;
76373;SDS011;65197;50.164;8.012;2024-03-06T11:09:26;14.25;;;8.00;;
76373;SDS011;65197;50.164;8.012;2024-03-06T11:11:52;13.88;;;8.65;;
76373;SDS011;65197;50.164;8.012;2024-03-06T11:14:22;15.90;;;8.95;;
76373;SDS011;65197;50.164;8.012;2024-03-06T11:28:24;12.60;;;8.02;;
76373;SDS011;65197;50.164;8.012;2024-03-06T11:30:56;12.90;;;8.15;;
76373;SDS011;65197;50.164;8.012;2024-03-06T11:33:39;15.52;;;8.80;;
76373;SDS011;65197;50.164;8.012;2024-03-06T11:36:21;11.07;;;7.38;;
76373;SDS011;65197;50.164;8.012;2024-03-06T11:38:57;13.90;;;7.80;;
76373;SDS011;65197;50.164;8.012;2024-03-06T11:41:25;13.82;;;7.80;;
76373;SDS011;65197;50.164;8.012;2024-03-06T11:43:52;13.23;;;7.40;;
76373;SDS011;65197;50.164;8.012;2024-03-06T11:46:22;13.05;;;7.22;;
76373;SDS011;65197;50.164;8.012;2024-03-06T11:49:04;11.73;;;6.50;;
76373;SDS011;65197;50.164;8.012;2024-03-06T11:51:52;12.85;;;7.18;;
76373;SDS011;65197;50.164;8.012;2024-03-06T11:54:19;11.55;;;6.28;;
76373;SDS011;65197;50.164;8.012;2024-03-06T11:56:48;12.70;;;6.45;;
76373;SDS011;65197;50.164;8.012;2024-03-06T11:59:16;12.38;;;7.18;;
76373;SDS011;65197;50.164;8.012;2024-03-06T12:01:48;11.85;;;6.68;;
76373;SDS011;65197;50.164;8.012;2024-03-06T12:04:14;12.07;;;6.40;;
76373;SDS011;65197;50.164;8.012;2024-03-06T12:06:39;11.38;;;7.43;;
76373;SDS011;65197;50.164;8.012;2024-03-06T12:09:05;13.32;;;7.45;;
76373;SDS011;65197;50.164;8.012;2024-03-06T12:11:31;12.57;;;7.00;;
76373;SDS011;65197;50.164;8.012;2024-03-06T12:13:56;12.32;;;7.15;;
76373;SDS011;65197;50.164;8.012;2024-03-06T12:16:22;11.77;;;6.50;;
76373;SDS011;65197;50.164;8.012;2024-03-06T12:18:57;12.57;;;7.57;;
76373;SDS011;65197;50.164;8.012;2024-03-06T12:21:27;15.60;;;7.70;;
76373;SDS011;65197;50.164;8.012;2024-03-06T12:24:02;11.20;;;6.72;;
76373;SDS011;65197;50.164;8.012;2024-03-06T12:26:32;15.35;;;7.40;;
76373;SDS011;65197;50.164;8.012;2024-03-06T12:29:04;11.77;;;6.30;;
76373;SDS011;65197;50.164;8.012;2024-03-06T12:31:34;13.00;;;7.47;;
76373;SDS011;65197;50.164;8.012;2024-03-06T12:34:00;11.77;;;6.03;;
76373;SDS011;65197;50.164;8.012;2024-03-06T12:36:29;12.02;;;6.85;;
76373;SDS011;65197;50.164;8.012;2024-03-06T12:38:56;9.90;;;6.45;;
76373;SDS011;65197;50.164;8.012;2024-03-06T12:41:23;10.55;;;5.60;;
76373;SDS011;65197;50.164;8.012;2024-03-06T12:43:51;10.90;;;6.20;;
76373;SDS011;65197;50.164;8.012;2024-03-06T12:46:16;9.60;;;5.45;;
76373;SDS011;65197;50.164;8.012;2024-03-06T12:48:42;10.93;;;5.97;;
76373;SDS011;65197;50.164;8.012;2024-03-06T12:51:07;9.70;;;5.47;;
76373;SDS011;65197;50.164;8.012;2024-03-06T12:53:32;10.65;;;5.60;;
76373;SDS011;65197;50.164;8.012;2024-03-06T12:56:00;10.68;;;5.82;;
76373;SDS011;65197;50.164;8.012;2024-03-06T12:58:25;10.18;;;5.78;;
76373;SDS011;65197;50.164;8.012;2024-03-06T13:00:51;11.13;;;5.80;;
76373;SDS011;65197;50.164;8.012;2024-03-06T13:03:17;9.27;;;5.68;;
76373;SDS011;65197;50.164;8.012;2024-03-06T13:05:43;8.63;;;6.03;;
76373;SDS011;65197;50.164;8.012;2024-03-06T13:08:08;8.13;;;5.82;;
76373;SDS011;65197;50.164;8.012;2024-03-06T13:10:33;8.93;;;5.35;;
76373;SDS011;65197;50.164;8.012;2024-03-06T13:13:00;8.50;;;5.72;;
76373;SDS011;65197;50.164;8.012;2024-03-06T13:15:26;10.10;;;5.70;;
76373;SDS011;65197;50.164;8.012;2024-03-06T13:17:51;9.95;;;6.10;;
76373;SDS011;65197;50.164;8.012;2024-03-06T13:20:17;11.77;;;6.32;;
76373;SDS011;65197;50.164;8.012;2024-03-06T13:22:42;9.10;;;5.30;;
76373;SDS011;65197;50.164;8.012;2024-03-06T13:25:09;8.07;;;5.18;;
76373;SDS011;65197;50.164;8.012;2024-03-06T13:27:34;9.27;;;4.88;;
76373;SDS011;65197;50.164;8.012;2024-03-06T13:30:00;8.98;;;5.45;;
76373;SDS011;65197;50.164;8.012;2024-03-06T13:32:25;8.60;;;5.43;;
76373;SDS011;65197;50.164;8.012;2024-03-06T13:34:51;8.07;;;5.10;;
76373;SDS011;65197;50.164;8.012;2024-03-06T13:37:17;9.52;;;5.75;;
76373;SDS011;65197;50.164;8.012;2024-03-06T13:39:42;9.95;;;6.50;;
76373;SDS011;65197;50.164;8.012;2024-03-06T13:42:07;10.70;;;6.68;;
76373;SDS011;65197;50.164;8.012;2024-03-06T13:44:36;9.38;;;5.72;;
76373;SDS011;65197;50.164;8.012;2024-03-06T13:47:02;11.32;;;6.50;;
76373;SDS011;65197;50.164;8.012;2024-03-06T13:49:35;10.02;;;6.25;;
76373;SDS011;65197;50.164;8.012;2024-03-06T13:52:05;10.32;;;6.75;;
76373;SDS011;65197;50.164;8.012;2024-03-06T13:54:32;11.27;;;6.95;;
76373;SDS011;65197;50.164;8.012;2024-03-06T13:56:58;12.90;;;6.95;;
76373;SDS011;65197;50.164;8.012;2024-03-06T13:59:33;12.25;;;7.28;;
76373;SDS011;65197;50.164;8.012;2024-03-06T14:01:59;12.80;;;7.43;;
76373;SDS011;65197;50.164;8.012;2024-03-06T14:04:24;10.52;;;6.13;;
76373;SDS011;65197;50.164;8.012;2024-03-06T14:06:50;10.27;;;6.90;;
76373;SDS011;65197;50.164;8.012;2024-03-06T14:09:16;11.90;;;7.03;;
76373;SDS011;65197;50.164;8.012;2024-03-06T14:11:41;10.65;;;6.85;;
76373;SDS011;65197;50.164;8.012;2024-03-06T14:14:06;10.43;;;6.88;;
76373;SDS011;65197;50.164;8.012;2024-03-06T14:16:33;13.93;;;7.13;;
76373;SDS011;65197;50.164;8.012;2024-03-06T14:18:59;12.82;;;7.82;;
76373;SDS011;65197;50.164;8.012;2024-03-06T14:21:24;11.90;;;7.22;;
76373;SDS011;65197;50.164;8.012;2024-03-06T14:23:49;13.00;;;7.68;;
76373;SDS011;65197;50.164;8.012;2024-03-06T14:26:15;15.00;;;8.30;;
76373;SDS011;65197;50.164;8.012;2024-03-06T14:28:41;14.45;;;8.52;;
76373;SDS011;65197;50.164;8.012;2024-03-06T14:31:06;15.57;;;9.43;;
76373;SDS011;65197;50.164;8.012;2024-03-06T14:33:32;14.50;;;9.07;;
76373;SDS011;65197;50.164;8.012;2024-03-06T14:35:57;15.45;;;9.20;;
76373;SDS011;65197;50.164;8.012;2024-03-06T14:38:23;16.60;;;8.73;;
76373;SDS011;65197;50.164;8.012;2024-03-06T14:40:48;15.45;;;8.73;;
76373;SDS011;65197;50.164;8.012;2024-03-06T14:43:14;16.67;;;9.50;;
76373;SDS011;65197;50.164;8.012;2024-03-06T14:45:40;15.98;;;8.98;;
76373;SDS011;65197;50.164;8.012;2024-03-06T14:48:08;16.17;;;9.40;;
76373;SDS011;65197;50.164;8.012;2024-03-06T14:50:33;18.10;;;9.90;;
76373;SDS011;65197;50.164;8.012;2024-03-06T14:52:59;16.38;;;8.93;;
76373;SDS011;65197;50.164;8.012;2024-03-06T14:55:25;19.70;;;10.23;;